createdAt,value
2023-05-19T00:00:28.648Z,102252.88
2023-05-19T00:02:56.261Z,102248.59
2023-05-19T00:05:23.059Z,102249.84
2023-05-19T00:07:49.482Z,102254.25
2023-05-19T00:10:16.255Z,102252.88
2023-05-19T00:12:42.947Z,102255.00
2023-05-19T00:15:10.501Z,102252.72
2023-05-19T00:17:38.323Z,102245.59
2023-05-19T00:20:07.382Z,102252.72
2023-05-19T00:22:34.035Z,102249.84
2023-05-19T00:25:00.427Z,102251.22
2023-05-19T00:27:26.826Z,102254.13
2023-05-19T00:29:53.229Z,102252.59
2023-05-19T00:32:19.648Z,102258.34
2023-05-19T00:34:47.778Z,102246.84
2023-05-19T00:37:14.170Z,102243.81
2023-05-19T00:39:40.593Z,102246.84
2023-05-19T00:42:06.966Z,102253.22
2023-05-19T00:44:33.391Z,102250.97
2023-05-19T00:46:59.894Z,102255.31
2023-05-19T00:49:26.526Z,102245.19
2023-05-19T00:51:52.937Z,102250.81
2023-05-19T00:54:19.336Z,102255.19
2023-05-19T00:56:45.732Z,102245.81
2023-05-19T00:59:12.422Z,102249.31
2023-05-19T01:01:38.973Z,102247.81
2023-05-19T01:04:05.610Z,102242.03
2023-05-19T01:06:32.102Z,102242.03
2023-05-19T01:08:58.654Z,102241.91
2023-05-19T01:11:25.145Z,102234.00
2023-05-19T01:13:51.542Z,102236.16
2023-05-19T01:16:36.538Z,102237.53
2023-05-19T01:19:05.939Z,102239.53
2023-05-19T01:21:50.303Z,102239.53
2023-05-19T01:24:22.788Z,102240.13
2023-05-19T01:26:55.246Z,102243.75
2023-05-19T01:29:24.631Z,102241.53
2023-05-19T01:31:51.073Z,102247.28
2023-05-19T01:34:17.555Z,102240.00
2023-05-19T01:36:45.579Z,102250.00
2023-05-19T01:39:12.622Z,102245.63
2023-05-19T01:41:39.540Z,102240.50
2023-05-19T01:44:07.975Z,102247.00
2023-05-19T01:46:34.413Z,102244.13
2023-05-19T01:49:00.835Z,102247.00
2023-05-19T01:51:27.211Z,102245.47
2023-05-19T01:53:53.583Z,102244.72
2023-05-19T01:56:22.068Z,102243.97
2023-05-19T01:58:49.676Z,102253.38
2023-05-19T02:01:31.360Z,102249.75
2023-05-19T02:04:18.520Z,102253.97
2023-05-19T02:07:03.545Z,102245.34
2023-05-19T02:09:53.253Z,102253.97
2023-05-19T02:12:24.370Z,102246.72
2023-05-19T02:15:10.979Z,102250.34
2023-05-19T02:17:38.402Z,102246.72
2023-05-19T02:20:04.963Z,102248.09
2023-05-19T02:22:31.533Z,102245.22
2023-05-19T02:24:57.994Z,102249.47
2023-05-19T02:27:24.462Z,102249.47
2023-05-19T02:29:50.911Z,102237.94
2023-05-19T02:32:17.392Z,102232.19
2023-05-19T02:34:45.516Z,102237.94
2023-05-19T02:37:13.643Z,102237.19
2023-05-19T02:39:40.489Z,102242.22
2023-05-19T02:42:06.884Z,102236.44
2023-05-19T02:44:33.268Z,102241.44
2023-05-19T02:46:59.660Z,102235.69
2023-05-19T02:49:26.065Z,102246.44
2023-05-19T02:51:53.695Z,102240.69
2023-05-19T02:54:20.090Z,102238.56
2023-05-19T02:56:46.928Z,102237.81
2023-05-19T02:59:13.336Z,102233.44
2023-05-19T03:01:40.482Z,102239.19
2023-05-19T03:04:07.194Z,102225.41
2023-05-19T03:06:34.241Z,102236.16
2023-05-19T03:09:00.635Z,102236.16
2023-05-19T03:11:27.016Z,102230.41
2023-05-19T03:13:53.408Z,102228.88
2023-05-19T03:16:20.084Z,102227.38
2023-05-19T03:18:46.531Z,102231.59
2023-05-19T03:21:13.043Z,102229.97
2023-05-19T03:23:39.477Z,102226.00
2023-05-19T03:26:06.183Z,102227.53
2023-05-19T03:28:33.029Z,102236.16
2023-05-19T03:30:59.458Z,102230.41
2023-05-19T03:33:29.951Z,102222.38
2023-05-19T03:35:56.820Z,102225.84
2023-05-19T03:38:23.441Z,102224.34
2023-05-19T03:40:55.487Z,102222.84
2023-05-19T03:43:22.038Z,102218.47
2023-05-19T03:45:54.233Z,102215.59
2023-05-19T03:48:41.228Z,102221.34
2023-05-19T03:51:28.589Z,102219.84
2023-05-19T03:53:57.220Z,102221.34
2023-05-19T03:56:26.409Z,102227.09
2023-05-19T03:58:54.710Z,102221.34
2023-05-19T04:01:21.128Z,102223.47
2023-05-19T04:03:47.633Z,102226.34
2023-05-19T04:06:14.056Z,102229.81
2023-05-19T04:08:40.492Z,102222.56
2023-05-19T04:11:06.890Z,102224.72
2023-05-19T04:13:33.383Z,102228.34
2023-05-19T04:15:59.789Z,102226.06
2023-05-19T04:18:28.788Z,102225.31
2023-05-19T04:20:55.793Z,102233.34
2023-05-19T04:23:22.192Z,102226.06
2023-05-19T04:25:49.502Z,102226.81
2023-05-19T04:28:16.062Z,102224.56
2023-05-19T04:30:42.577Z,102231.06
2023-05-19T04:33:11.943Z,102238.06
2023-05-19T04:35:39.677Z,102231.53
2023-05-19T04:38:07.823Z,102235.03
2023-05-19T04:40:35.197Z,102238.75
2023-05-19T04:43:02.245Z,102243.88
2023-05-19T04:45:29.166Z,102241.75
2023-05-19T04:47:59.157Z,102235.88
2023-05-19T04:50:25.558Z,102229.69
2023-05-19T04:52:52.371Z,102239.00
2023-05-19T04:55:18.941Z,102240.81
2023-05-19T04:57:46.988Z,102230.94
2023-05-19T05:00:14.355Z,102242.59
2023-05-19T05:02:51.997Z,102238.31
2023-05-19T05:05:21.083Z,102236.97
2023-05-19T05:07:47.760Z,102229.09
2023-05-19T05:10:14.270Z,102229.81
2023-05-19T05:12:40.834Z,102232.72
2023-05-19T05:15:07.453Z,102237.09
2023-05-19T05:17:37.728Z,102239.34
2023-05-19T05:20:06.229Z,102236.63
2023-05-19T05:22:32.757Z,102248.75
2023-05-19T05:24:59.183Z,102245.88
2023-05-19T05:27:26.085Z,102247.38
2023-05-19T05:29:53.049Z,102246.00
2023-05-19T05:32:20.362Z,102244.50
2023-05-19T05:34:46.777Z,102240.88
2023-05-19T05:37:15.131Z,102240.13
2023-05-19T05:39:42.013Z,102235.88
2023-05-19T05:42:12.531Z,102239.50
2023-05-19T05:44:40.316Z,102240.13
2023-05-19T05:47:07.070Z,102238.75
2023-05-19T05:49:36.503Z,102236.63
2023-05-19T05:52:06.111Z,102242.38
2023-05-19T05:54:38.257Z,102235.88
2023-05-19T05:57:05.131Z,102237.34
2023-05-19T05:59:33.858Z,102231.59
2023-05-19T06:02:00.576Z,102228.72
2023-05-19T06:04:27.052Z,102238.88
2023-05-19T06:06:57.233Z,102238.13
2023-05-19T06:09:25.575Z,102241.75
2023-05-19T06:11:51.997Z,102227.38
2023-05-19T06:14:18.810Z,102233.91
2023-05-19T06:17:08.239Z,102231.78
2023-05-19T06:19:34.626Z,102234.66
2023-05-19T06:22:01.127Z,102240.41
2023-05-19T06:24:28.932Z,102241.94
2023-05-19T06:26:55.446Z,102237.53
2023-05-19T06:29:21.884Z,102238.88
2023-05-19T06:31:49.902Z,102234.66
2023-05-19T06:34:17.728Z,102234.66
2023-05-19T06:36:46.164Z,102241.94
2023-05-19T06:39:12.991Z,102240.41
2023-05-19T06:41:40.250Z,102241.94
2023-05-19T06:44:07.892Z,102241.94
2023-05-19T06:46:34.628Z,102236.16
2023-05-19T06:49:01.089Z,102233.28
2023-05-19T06:51:31.374Z,102231.16
2023-05-19T06:53:59.622Z,102237.66
2023-05-19T06:56:26.650Z,102239.78
2023-05-19T06:58:53.049Z,102242.69
2023-05-19T07:01:23.395Z,102242.06
2023-05-19T07:03:54.208Z,102242.69
2023-05-19T07:06:21.031Z,102244.94
2023-05-19T07:08:47.782Z,102237.66
2023-05-19T07:11:14.436Z,102238.44
2023-05-19T07:13:41.725Z,102234.78
2023-05-19T07:16:08.623Z,102238.44
2023-05-19T07:18:35.389Z,102235.56
2023-05-19T07:21:01.770Z,102237.66
2023-05-19T07:23:28.231Z,102233.44
2023-05-19T07:25:56.361Z,102232.69
2023-05-19T07:28:22.898Z,102235.69
2023-05-19T07:30:49.873Z,102235.69
2023-05-19T07:33:16.378Z,102236.44
2023-05-19T07:35:42.893Z,102233.44
2023-05-19T07:38:09.271Z,102229.91
2023-05-19T07:40:35.657Z,102229.16
2023-05-19T07:43:02.017Z,102229.16
2023-05-19T07:45:28.396Z,102224.94
2023-05-19T07:47:54.815Z,102217.78
2023-05-19T07:50:21.381Z,102226.44
2023-05-19T07:52:47.774Z,102226.44
2023-05-19T07:55:14.764Z,102219.31
2023-05-19T07:57:41.488Z,102212.78
2023-05-19T08:00:09.925Z,102210.69
2023-05-19T08:02:38.233Z,102209.16
2023-05-19T08:05:04.756Z,102213.56
2023-05-19T08:07:31.126Z,102205.69
2023-05-19T08:09:57.642Z,102212.19
2023-05-19T08:12:24.183Z,102217.94
2023-05-19T08:14:51.203Z,102219.44
2023-05-19T08:17:17.589Z,102220.94
2023-05-19T08:19:43.964Z,102219.44
2023-05-19T08:22:10.458Z,102220.22
2023-05-19T08:24:36.938Z,102228.84
2023-05-19T08:27:04.839Z,102226.72
2023-05-19T08:29:31.893Z,102226.72
2023-05-19T08:31:58.486Z,102223.97
2023-05-19T08:34:24.853Z,102217.47
2023-05-19T08:36:51.241Z,102229.88
2023-05-19T08:39:19.586Z,102223.97
2023-05-19T08:41:45.966Z,102213.94
2023-05-19T08:44:12.357Z,102215.34
2023-05-19T08:46:38.850Z,102219.31
2023-05-19T08:49:05.509Z,102217.53
2023-05-19T08:51:50.889Z,102223.41
2023-05-19T08:54:18.134Z,102227.69
2023-05-19T08:56:45.061Z,102214.63
2023-05-19T08:59:11.996Z,102204.66
2023-05-19T09:01:38.731Z,102207.53
2023-05-19T09:04:05.227Z,102201.03
2023-05-19T09:06:34.906Z,102198.91
2023-05-19T09:09:01.301Z,102196.75
2023-05-19T09:11:27.687Z,102200.38
2023-05-19T09:13:54.186Z,102192.50
2023-05-19T09:16:20.733Z,102191.16
2023-05-19T09:19:00.938Z,102190.41
2023-05-19T09:21:28.407Z,102183.25
2023-05-19T09:23:55.502Z,102184.66
2023-05-19T09:26:23.360Z,102178.88
2023-05-19T09:28:49.758Z,102176.25
2023-05-19T09:31:16.403Z,102177.41
2023-05-19T09:33:45.503Z,102163.38
2023-05-19T09:36:12.671Z,102166.13
2023-05-19T09:38:39.053Z,102172.75
2023-05-19T09:41:05.929Z,102169.56
2023-05-19T09:43:35.505Z,102170.44
2023-05-19T09:46:06.137Z,102169.66
2023-05-19T09:48:32.868Z,102155.41
2023-05-19T09:51:00.215Z,102166.91
2023-05-19T09:53:26.873Z,102164.03
2023-05-19T09:55:57.511Z,102162.69
2023-05-19T09:58:24.394Z,102155.41
2023-05-19T10:00:50.851Z,102159.81
2023-05-19T10:03:17.851Z,102154.78
2023-05-19T10:05:44.445Z,102136.78
2023-05-19T10:08:11.705Z,102141.13
2023-05-19T10:10:38.271Z,102142.66
2023-05-19T10:13:05.219Z,102139.00
2023-05-19T10:15:33.131Z,102142.66
2023-05-19T10:18:02.701Z,102136.91
2023-05-19T10:20:29.136Z,102140.53
2023-05-19T10:22:55.516Z,102137.66
2023-05-19T10:25:21.947Z,102137.66
2023-05-19T10:27:55.742Z,102136.91
2023-05-19T10:30:27.494Z,102139.16
2023-05-19T10:32:54.719Z,102134.78
2023-05-19T10:35:36.923Z,102137.66
2023-05-19T10:38:06.308Z,102142.78
2023-05-19T10:40:53.401Z,102142.66
2023-05-19T10:43:29.404Z,102137.78
2023-05-19T10:45:55.882Z,102134.16
2023-05-19T10:48:25.137Z,102125.38
2023-05-19T10:50:54.746Z,102126.75
2023-05-19T10:53:22.641Z,102129.91
2023-05-19T10:55:52.833Z,102136.41
2023-05-19T10:58:41.552Z,102125.63
2023-05-19T11:01:10.526Z,102121.38
2023-05-19T11:03:53.491Z,102129.91
2023-05-19T11:06:29.745Z,102126.53
2023-05-19T11:09:04.916Z,102115.78
2023-05-19T11:11:50.170Z,102123.66
2023-05-19T11:14:23.981Z,102121.66
2023-05-19T11:16:50.958Z,102113.78
2023-05-19T11:19:19.802Z,102110.75
2023-05-19T11:21:54.989Z,102100.13
2023-05-19T11:24:40.347Z,102098.63
2023-05-19T11:27:25.389Z,102097.97
2023-05-19T11:29:51.789Z,102107.25
2023-05-19T11:32:18.329Z,102101.63
2023-05-19T11:34:44.750Z,102109.03
2023-05-19T11:37:11.382Z,102101.00
2023-05-19T11:39:37.768Z,102101.13
2023-05-19T11:42:04.203Z,102099.13
2023-05-19T11:44:31.587Z,102100.66
2023-05-19T11:47:01.030Z,102093.50
2023-05-19T11:49:28.220Z,102090.50
2023-05-19T11:51:54.764Z,102094.88
2023-05-19T11:54:21.299Z,102095.63
2023-05-19T11:56:47.674Z,102096.38
2023-05-19T11:59:14.053Z,102104.41
2023-05-19T12:01:40.441Z,102099.38
2023-05-19T12:04:10.332Z,102105.16
2023-05-19T12:06:39.531Z,102098.13
2023-05-19T12:09:06.231Z,102101.00
2023-05-19T12:11:32.622Z,102099.66
2023-05-19T12:13:59.023Z,102093.88
2023-05-19T12:16:33.470Z,102085.88
2023-05-19T12:19:00.069Z,102082.38
2023-05-19T12:21:34.317Z,102085.25
2023-05-19T12:24:00.891Z,102096.78
2023-05-19T12:26:27.336Z,102083.88
2023-05-19T12:28:53.835Z,102087.50
2023-05-19T12:31:20.461Z,102090.50
2023-05-19T12:33:48.503Z,102084.75
2023-05-19T12:36:14.876Z,102086.13
2023-05-19T12:38:42.293Z,102078.22
2023-05-19T12:41:10.531Z,102075.34
2023-05-19T12:43:37.704Z,102070.47
2023-05-19T12:46:13.021Z,102067.47
2023-05-19T12:48:45.520Z,102063.97
2023-05-19T12:51:18.814Z,102066.84
2023-05-19T12:53:45.920Z,102058.31
2023-05-19T12:56:13.738Z,102064.09
2023-05-19T12:58:40.650Z,102049.56
2023-05-19T13:01:08.216Z,102049.69
2023-05-19T13:03:39.503Z,102060.47
2023-05-19T13:06:05.980Z,102055.56
2023-05-19T13:08:32.619Z,102065.72
2023-05-19T13:10:59.075Z,102047.69
2023-05-19T13:13:25.478Z,102068.84
2023-05-19T13:15:51.855Z,102053.31
2023-05-19T13:18:18.288Z,102060.31
2023-05-19T13:20:44.773Z,102057.81
2023-05-19T13:23:11.289Z,102051.44
2023-05-19T13:25:37.686Z,102049.31
2023-05-19T13:28:05.849Z,102047.56
2023-05-19T13:30:32.770Z,102046.81
2023-05-19T13:32:59.482Z,102043.94
2023-05-19T13:35:26.057Z,102049.31
2023-05-19T13:37:52.439Z,102041.91
2023-05-19T13:40:19.169Z,102041.53
2023-05-19T13:42:45.799Z,102047.56
2023-05-19T13:45:12.176Z,102036.16
2023-05-19T13:47:38.762Z,102035.50
2023-05-19T13:50:05.457Z,102028.53
2023-05-19T13:52:31.894Z,102041.53
2023-05-19T13:54:58.309Z,102041.28
2023-05-19T13:57:25.486Z,102043.78
2023-05-19T14:00:01.669Z,102046.53
2023-05-19T14:02:38.497Z,102042.78
2023-05-19T14:05:06.058Z,102048.81
2023-05-19T14:07:34.664Z,102046.66
2023-05-19T14:10:01.192Z,102046.78
2023-05-19T14:12:35.358Z,102043.41
2023-05-19T14:15:06.307Z,102043.78
2023-05-19T14:17:32.768Z,102046.78
2023-05-19T14:19:59.851Z,102042.13
2023-05-19T14:22:26.501Z,102047.78
2023-05-19T14:24:52.885Z,102057.78
2023-05-19T14:27:19.282Z,102048.88
2023-05-19T14:29:45.770Z,102056.03
2023-05-19T14:32:12.160Z,102051.03
2023-05-19T14:34:38.580Z,102044.50
2023-05-19T14:37:05.013Z,102046.13
2023-05-19T14:39:31.406Z,102056.53
2023-05-19T14:41:59.435Z,102060.66
2023-05-19T14:44:29.876Z,102063.53
2023-05-19T14:46:56.306Z,102056.78
2023-05-19T14:49:22.732Z,102054.50
2023-05-19T14:51:49.112Z,102060.28
2023-05-19T14:54:15.595Z,102059.78
2023-05-19T14:56:41.976Z,102054.78
2023-05-19T14:59:08.384Z,102054.03
2023-05-19T15:01:34.794Z,102056.28
2023-05-19T15:04:01.248Z,102060.28
2023-05-19T15:06:27.653Z,102058.66
2023-05-19T15:08:54.026Z,102068.03
2023-05-19T15:11:20.750Z,102060.16
2023-05-19T15:13:47.147Z,102065.94
2023-05-19T15:16:17.054Z,102060.16
2023-05-19T15:18:44.380Z,102051.75
2023-05-19T15:21:10.858Z,102053.28
2023-05-19T15:23:37.249Z,102053.03
2023-05-19T15:26:03.686Z,102059.78
2023-05-19T15:28:30.077Z,102057.28
2023-05-19T15:30:56.512Z,102047.75
2023-05-19T15:33:22.902Z,102055.63
2023-05-19T15:35:51.703Z,102056.00
2023-05-19T15:38:18.728Z,102047.50
2023-05-19T15:40:45.097Z,102051.75
2023-05-19T15:43:11.488Z,102041.47
2023-05-19T15:45:37.876Z,102049.38
2023-05-19T15:48:04.276Z,102042.38
2023-05-19T15:50:30.723Z,102051.00
2023-05-19T15:52:57.104Z,102050.25
2023-05-19T15:55:23.483Z,102050.72
2023-05-19T15:57:49.905Z,102050.47
2023-05-19T16:00:16.355Z,102057.38
2023-05-19T16:02:42.899Z,102051.25
2023-05-19T16:05:09.374Z,102043.25
2023-05-19T16:07:35.877Z,102046.28
2023-05-19T16:10:02.252Z,102031.25
2023-05-19T16:12:29.483Z,102033.50
2023-05-19T16:14:55.888Z,102039.66
2023-05-19T16:17:22.276Z,102046.94
2023-05-19T16:19:48.676Z,102039.78
2023-05-19T16:22:15.077Z,102034.75
2023-05-19T16:24:41.457Z,102033.25
2023-05-19T16:27:07.862Z,102032.50
2023-05-19T16:29:34.273Z,102029.38
2023-05-19T16:32:00.735Z,102026.72
2023-05-19T16:34:28.553Z,102031.09
2023-05-19T16:36:55.670Z,102034.16
2023-05-19T16:39:22.112Z,102033.50
2023-05-19T16:41:48.547Z,102035.41
2023-05-19T16:44:14.970Z,102027.72
2023-05-19T16:46:41.361Z,102029.84
2023-05-19T16:49:07.745Z,102036.00
2023-05-19T16:51:34.146Z,102036.50
2023-05-19T16:54:00.583Z,102029.75
2023-05-19T16:56:26.965Z,102041.41
2023-05-19T16:58:54.605Z,102033.03
2023-05-19T17:01:21.319Z,102046.06
2023-05-19T17:03:47.773Z,102037.41
2023-05-19T17:06:14.181Z,102031.78
2023-05-19T17:08:40.594Z,102036.91
2023-05-19T17:11:07.036Z,102036.03
2023-05-19T17:13:36.694Z,102037.66
2023-05-19T17:16:03.092Z,102040.78
2023-05-19T17:18:31.151Z,102046.56
2023-05-19T17:20:59.184Z,102049.19
2023-05-19T17:23:25.645Z,102046.56
2023-05-19T17:25:53.856Z,102047.81
2023-05-19T17:28:20.403Z,102052.81
2023-05-19T17:30:46.782Z,102055.66
2023-05-19T17:33:13.707Z,102039.03
2023-05-19T17:35:41.260Z,102043.31
2023-05-19T17:38:07.652Z,102038.66
2023-05-19T17:40:34.194Z,102047.28
2023-05-19T17:43:00.845Z,102046.69
2023-05-19T17:45:27.245Z,102045.28
2023-05-19T17:47:53.661Z,102041.66
2023-05-19T17:50:20.064Z,102045.81
2023-05-19T17:52:46.543Z,102051.81
2023-05-19T17:55:12.977Z,102057.56
2023-05-19T17:57:39.467Z,102055.31
2023-05-19T18:00:07.846Z,102045.81
2023-05-19T18:02:34.985Z,102046.06
2023-05-19T18:05:01.805Z,102049.03
2023-05-19T18:07:28.237Z,102039.66
2023-05-19T18:09:55.208Z,102042.78
2023-05-19T18:12:22.684Z,102044.41
2023-05-19T18:14:49.625Z,102051.16
2023-05-19T18:17:16.034Z,102043.53
2023-05-19T18:19:42.464Z,102053.75
2023-05-19T18:22:12.830Z,102059.03
2023-05-19T18:24:39.229Z,102058.16
2023-05-19T18:27:05.665Z,102066.03
2023-05-19T18:29:33.131Z,102061.53
2023-05-19T18:31:59.583Z,102057.28
2023-05-19T18:34:27.613Z,102066.16
2023-05-19T18:36:54.111Z,102058.78
2023-05-19T18:39:20.553Z,102067.00
2023-05-19T18:41:47.438Z,102071.97
2023-05-19T18:44:13.822Z,102072.63
2023-05-19T18:46:40.224Z,102068.88
2023-05-19T18:49:06.679Z,102064.63
2023-05-19T18:51:34.495Z,102063.75
2023-05-19T18:54:00.905Z,102072.25
2023-05-19T18:56:27.590Z,102075.56
2023-05-19T18:58:54.161Z,102070.44
2023-05-19T19:01:20.708Z,102080.34
2023-05-19T19:03:49.130Z,102078.34
2023-05-19T19:06:17.191Z,102075.19
2023-05-19T19:08:43.914Z,102076.44
2023-05-19T19:11:11.301Z,102069.69
2023-05-19T19:13:37.682Z,102075.19
2023-05-19T19:16:04.073Z,102081.94
2023-05-19T19:18:30.510Z,102080.41
2023-05-19T19:20:57.634Z,102079.81
2023-05-19T19:23:24.025Z,102079.56
2023-05-19T19:25:50.492Z,102084.06
2023-05-19T19:28:16.915Z,102082.53
2023-05-19T19:30:43.324Z,102087.81
2023-05-19T19:33:09.775Z,102082.78
2023-05-19T19:35:36.195Z,102087.28
2023-05-19T19:38:02.570Z,102071.97
2023-05-19T19:40:29.596Z,102081.16
2023-05-19T19:42:55.982Z,102075.66
2023-05-19T19:45:22.431Z,102076.94
2023-05-19T19:47:48.819Z,102083.47
2023-05-19T19:50:15.561Z,102095.00
2023-05-19T19:52:42.921Z,102087.72
2023-05-19T19:55:09.551Z,102086.53
2023-05-19T19:57:36.229Z,102085.19
2023-05-19T20:00:08.080Z,102078.44
2023-05-19T20:02:35.898Z,102083.72
2023-05-19T20:05:02.431Z,102095.28
2023-05-19T20:07:28.987Z,102089.22
2023-05-19T20:09:58.021Z,102090.75
2023-05-19T20:12:24.405Z,102090.69
2023-05-19T20:14:52.991Z,102094.81
2023-05-19T20:17:19.419Z,102096.94
2023-05-19T20:19:45.832Z,102098.16
2023-05-19T20:22:12.316Z,102108.03
2023-05-19T20:24:38.680Z,102102.16
2023-05-19T20:27:05.206Z,102112.53
2023-05-19T20:29:32.178Z,102121.69
2023-05-19T20:31:58.578Z,102106.41
2023-05-19T20:34:24.983Z,102114.91
2023-05-19T20:36:51.543Z,102120.66
2023-05-19T20:39:17.924Z,102114.75
2023-05-19T20:41:44.307Z,102126.88
2023-05-19T20:44:11.618Z,102123.53
2023-05-19T20:46:38.022Z,102129.00
2023-05-19T20:49:04.458Z,102120.25
2023-05-19T20:51:31.087Z,102120.25
2023-05-19T20:53:57.801Z,102119.41
2023-05-19T20:56:24.183Z,102121.34
2023-05-19T20:58:50.604Z,102127.09
2023-05-19T21:01:17.152Z,102119.06
2023-05-19T21:03:43.657Z,102123.19
2023-05-19T21:06:10.123Z,102117.59
2023-05-19T21:08:36.524Z,102118.31
2023-05-19T21:11:02.960Z,102118.19
2023-05-19T21:13:29.395Z,102126.69
2023-05-19T21:15:56.170Z,102133.94
2023-05-19T21:18:22.626Z,102128.25
2023-05-19T21:20:49.043Z,102130.03
2023-05-19T21:23:15.451Z,102126.25
2023-05-19T21:25:43.438Z,102130.94
2023-05-19T21:28:11.687Z,102133.03
2023-05-19T21:30:38.059Z,102133.81
2023-05-19T21:33:04.535Z,102137.91
2023-05-19T21:35:30.954Z,102132.97
2023-05-19T21:37:57.397Z,102135.59
2023-05-19T21:40:23.859Z,102140.25
2023-05-19T21:42:50.358Z,102139.97
2023-05-19T21:45:16.739Z,102135.69
2023-05-19T21:47:43.205Z,102141.44
2023-05-19T21:50:10.953Z,102138.03
2023-05-19T21:52:38.634Z,102138.03
2023-05-19T21:55:05.232Z,102136.66
2023-05-19T21:57:31.643Z,102139.97
2023-05-19T21:59:58.038Z,102144.22
2023-05-19T22:02:24.497Z,102149.69
2023-05-19T22:04:51.003Z,102139.69
2023-05-19T22:07:17.728Z,102151.31
2023-05-19T22:09:44.197Z,102154.94
2023-05-19T22:12:10.773Z,102165.53
2023-05-19T22:14:37.181Z,102157.66
2023-05-19T22:17:03.578Z,102154.41
2023-05-19T22:19:30.090Z,102157.13
2023-05-19T22:22:09.868Z,102159.56
2023-05-19T22:24:40.023Z,102153.81
2023-05-19T22:27:07.202Z,102159.28
2023-05-19T22:29:33.641Z,102160.06
2023-05-19T22:32:00.147Z,102157.59
2023-05-19T22:34:26.620Z,102157.31
2023-05-19T22:36:53.083Z,102162.59
2023-05-19T22:39:19.573Z,102156.09
2023-05-19T22:41:46.172Z,102161.56
2023-05-19T22:44:16.097Z,102155.34
2023-05-19T22:46:44.250Z,102160.81
2023-05-19T22:49:10.926Z,102156.16
2023-05-19T22:51:37.784Z,102155.34
2023-05-19T22:54:04.183Z,102153.81
2023-05-19T22:56:30.600Z,102157.03
2023-05-19T22:58:56.984Z,102155.50
2023-05-19T23:01:23.431Z,102158.38
2023-05-19T23:03:49.865Z,102160.47
2023-05-19T23:06:16.268Z,102151.69
2023-05-19T23:08:43.525Z,102150.19
2023-05-19T23:11:11.147Z,102150.34
2023-05-19T23:13:37.529Z,102155.13
2023-05-19T23:16:05.603Z,102154.44
2023-05-19T23:18:31.996Z,102149.84
2023-05-19T23:20:58.406Z,102145.53
2023-05-19T23:23:24.791Z,102147.31
2023-05-19T23:25:51.224Z,102155.59
2023-05-19T23:28:17.624Z,102150.72
2023-05-19T23:30:44.058Z,102147.50
2023-05-19T23:33:10.495Z,102141.28
2023-05-19T23:35:37.251Z,102145.03
2023-05-19T23:38:03.637Z,102148.06
2023-05-19T23:40:30.039Z,102146.53
2023-05-19T23:42:56.570Z,102147.78
2023-05-19T23:45:22.985Z,102145.03
2023-05-19T23:47:49.426Z,102140.03
2023-05-19T23:50:15.849Z,102149.53
2023-05-19T23:52:42.254Z,102146.66
2023-05-19T23:55:08.736Z,102144.53
2023-05-19T23:57:35.141Z,102139.56
